sensor_id;sensor_type;location;lat;lon;timestamp;temperature;humidity
13682;DHT22;6913;49.892;7.936;2023-08-12T00:00:10;19.80;99.90
13682;DHT22;6913;49.892;7.936;2023-08-12T00:02:38;19.90;99.90
13682;DHT22;6913;49.892;7.936;2023-08-12T00:05:05;20.00;99.90
13682;DHT22;6913;49.892;7.936;2023-08-12T00:07:32;20.00;99.90
13682;DHT22;6913;49.892;7.936;2023-08-12T00:09:59;20.00;99.90
13682;DHT22;6913;49.892;7.936;2023-08-12T00:12:30;20.00;99.90
13682;DHT22;6913;49.892;7.936;2023-08-12T00:14:57;20.00;99.90
13682;DHT22;6913;49.892;7.936;2023-08-12T00:17:24;20.00;99.90
13682;DHT22;6913;49.892;7.936;2023-08-12T00:19:51;20.60;99.90
13682;DHT22;6913;49.892;7.936;2023-08-12T00:22:18;20.40;99.90
13682;DHT22;6913;49.892;7.936;2023-08-12T00:24:45;20.20;99.90
13682;DHT22;6913;49.892;7.936;2023-08-12T00:27:11;20.00;99.90
13682;DHT22;6913;49.892;7.936;2023-08-12T00:29:40;20.20;99.90
13682;DHT22;6913;49.892;7.936;2023-08-12T00:32:08;20.10;99.90
13682;DHT22;6913;49.892;7.936;2023-08-12T00:34:35;20.10;99.90
13682;DHT22;6913;49.892;7.936;2023-08-12T00:37:02;20.10;99.90
13682;DHT22;6913;49.892;7.936;2023-08-12T00:39:29;20.10;99.90
13682;DHT22;6913;49.892;7.936;2023-08-12T00:41:55;20.10;99.90
13682;DHT22;6913;49.892;7.936;2023-08-12T00:44:22;20.10;99.90
13682;DHT22;6913;49.892;7.936;2023-08-12T00:46:50;20.20;99.90
13682;DHT22;6913;49.892;7.936;2023-08-12T00:49:17;19.80;99.90
13682;DHT22;6913;49.892;7.936;2023-08-12T00:51:45;19.50;99.90
13682;DHT22;6913;49.892;7.936;2023-08-12T00:54:14;19.30;99.90
13682;DHT22;6913;49.892;7.936;2023-08-12T00:56:42;19.20;99.90
13682;DHT22;6913;49.892;7.936;2023-08-12T00:59:09;19.70;99.90
13682;DHT22;6913;49.892;7.936;2023-08-12T01:01:39;19.60;99.90
13682;DHT22;6913;49.892;7.936;2023-08-12T01:04:07;19.90;99.90
13682;DHT22;6913;49.892;7.936;2023-08-12T01:06:35;19.90;99.90
13682;DHT22;6913;49.892;7.936;2023-08-12T01:09:03;20.00;99.90
13682;DHT22;6913;49.892;7.936;2023-08-12T01:11:36;20.10;99.90
13682;DHT22;6913;49.892;7.936;2023-08-12T01:14:08;20.00;99.90
13682;DHT22;6913;49.892;7.936;2023-08-12T01:16:40;20.10;99.90
13682;DHT22;6913;49.892;7.936;2023-08-12T01:19:11;20.10;99.90
13682;DHT22;6913;49.892;7.936;2023-08-12T01:21:46;20.40;99.90
13682;DHT22;6913;49.892;7.936;2023-08-12T01:24:15;20.00;99.90
13682;DHT22;6913;49.892;7.936;2023-08-12T01:26:42;20.20;99.90
13682;DHT22;6913;49.892;7.936;2023-08-12T01:29:09;19.40;99.90
13682;DHT22;6913;49.892;7.936;2023-08-12T01:31:40;19.60;99.90
13682;DHT22;6913;49.892;7.936;2023-08-12T01:34:15;19.80;99.90
13682;DHT22;6913;49.892;7.936;2023-08-12T01:36:47;19.90;99.90
13682;DHT22;6913;49.892;7.936;2023-08-12T01:39:17;20.00;99.90
13682;DHT22;6913;49.892;7.936;2023-08-12T01:41:45;20.10;99.90
13682;DHT22;6913;49.892;7.936;2023-08-12T01:44:12;20.20;99.90
13682;DHT22;6913;49.892;7.936;2023-08-12T01:46:39;20.40;99.90
13682;DHT22;6913;49.892;7.936;2023-08-12T01:49:06;20.50;99.90
13682;DHT22;6913;49.892;7.936;2023-08-12T01:51:33;20.60;99.90
13682;DHT22;6913;49.892;7.936;2023-08-12T01:53:59;20.20;99.90
13682;DHT22;6913;49.892;7.936;2023-08-12T01:56:27;20.20;99.90
13682;DHT22;6913;49.892;7.936;2023-08-12T01:58:54;20.30;99.90
13682;DHT22;6913;49.892;7.936;2023-08-12T02:01:21;20.00;99.90
13682;DHT22;6913;49.892;7.936;2023-08-12T02:03:48;20.00;99.90
13682;DHT22;6913;49.892;7.936;2023-08-12T02:06:14;20.00;99.90
13682;DHT22;6913;49.892;7.936;2023-08-12T02:08:41;20.00;99.90
13682;DHT22;6913;49.892;7.936;2023-08-12T02:11:08;20.00;99.90
13682;DHT22;6913;49.892;7.936;2023-08-12T02:13:36;20.30;99.90
13682;DHT22;6913;49.892;7.936;2023-08-12T02:16:03;20.20;99.90
13682;DHT22;6913;49.892;7.936;2023-08-12T02:18:30;20.20;99.90
13682;DHT22;6913;49.892;7.936;2023-08-12T02:20:57;20.00;99.90
13682;DHT22;6913;49.892;7.936;2023-08-12T02:23:24;19.90;99.90
13682;DHT22;6913;49.892;7.936;2023-08-12T02:25:52;19.90;99.90
13682;DHT22;6913;49.892;7.936;2023-08-12T02:28:19;20.00;99.90
13682;DHT22;6913;49.892;7.936;2023-08-12T02:30:47;20.00;99.90
13682;DHT22;6913;49.892;7.936;2023-08-12T02:33:14;19.50;99.90
13682;DHT22;6913;49.892;7.936;2023-08-12T02:35:41;20.20;99.90
13682;DHT22;6913;49.892;7.936;2023-08-12T02:38:08;20.30;99.90
13682;DHT22;6913;49.892;7.936;2023-08-12T02:40:35;20.50;99.90
13682;DHT22;6913;49.892;7.936;2023-08-12T02:43:02;20.20;99.90
13682;DHT22;6913;49.892;7.936;2023-08-12T02:45:29;20.20;99.90
13682;DHT22;6913;49.892;7.936;2023-08-12T02:47:57;19.90;99.90
13682;DHT22;6913;49.892;7.936;2023-08-12T02:50:24;19.80;99.90
13682;DHT22;6913;49.892;7.936;2023-08-12T02:52:50;19.50;99.90
13682;DHT22;6913;49.892;7.936;2023-08-12T02:55:17;19.70;99.90
13682;DHT22;6913;49.892;7.936;2023-08-12T02:57:44;20.00;99.90
13682;DHT22;6913;49.892;7.936;2023-08-12T03:00:12;19.80;99.90
13682;DHT22;6913;49.892;7.936;2023-08-12T03:02:42;20.00;99.90
13682;DHT22;6913;49.892;7.936;2023-08-12T03:05:10;19.70;99.90
13682;DHT22;6913;49.892;7.936;2023-08-12T03:07:37;19.30;99.90
13682;DHT22;6913;49.892;7.936;2023-08-12T03:10:04;19.20;99.90
13682;DHT22;6913;49.892;7.936;2023-08-12T03:12:31;19.30;99.90
13682;DHT22;6913;49.892;7.936;2023-08-12T03:14:58;19.70;99.90
13682;DHT22;6913;49.892;7.936;2023-08-12T03:17:25;19.60;99.90
13682;DHT22;6913;49.892;7.936;2023-08-12T03:19:52;19.70;99.90
13682;DHT22;6913;49.892;7.936;2023-08-12T03:22:21;20.00;99.90
13682;DHT22;6913;49.892;7.936;2023-08-12T03:24:48;20.10;99.90
13682;DHT22;6913;49.892;7.936;2023-08-12T03:27:15;20.40;99.90
13682;DHT22;6913;49.892;7.936;2023-08-12T03:29:41;20.30;99.90
13682;DHT22;6913;49.892;7.936;2023-08-12T03:32:08;20.30;99.90
13682;DHT22;6913;49.892;7.936;2023-08-12T03:34:35;20.40;99.90
13682;DHT22;6913;49.892;7.936;2023-08-12T03:37:02;20.30;99.90
13682;DHT22;6913;49.892;7.936;2023-08-12T03:39:30;20.40;99.90
13682;DHT22;6913;49.892;7.936;2023-08-12T03:41:57;20.30;99.90
13682;DHT22;6913;49.892;7.936;2023-08-12T03:44:24;20.40;99.90
13682;DHT22;6913;49.892;7.936;2023-08-12T03:46:51;20.30;99.90
13682;DHT22;6913;49.892;7.936;2023-08-12T03:49:18;20.50;99.90
13682;DHT22;6913;49.892;7.936;2023-08-12T03:51:45;20.40;99.90
13682;DHT22;6913;49.892;7.936;2023-08-12T03:54:12;20.50;99.90
13682;DHT22;6913;49.892;7.936;2023-08-12T03:56:40;20.50;99.90
13682;DHT22;6913;49.892;7.936;2023-08-12T03:59:07;20.40;99.90
13682;DHT22;6913;49.892;7.936;2023-08-12T04:01:34;20.40;99.90
13682;DHT22;6913;49.892;7.936;2023-08-12T04:04:01;20.40;99.90
13682;DHT22;6913;49.892;7.936;2023-08-12T04:06:27;20.40;99.90
13682;DHT22;6913;49.892;7.936;2023-08-12T04:08:54;20.60;99.90
13682;DHT22;6913;49.892;7.936;2023-08-12T04:11:21;20.70;99.90
13682;DHT22;6913;49.892;7.936;2023-08-12T04:13:49;20.50;99.90
13682;DHT22;6913;49.892;7.936;2023-08-12T04:16:16;20.50;99.90
13682;DHT22;6913;49.892;7.936;2023-08-12T04:18:43;20.40;99.90
13682;DHT22;6913;49.892;7.936;2023-08-12T04:21:09;20.20;99.90
13682;DHT22;6913;49.892;7.936;2023-08-12T04:23:36;20.60;99.90
13682;DHT22;6913;49.892;7.936;2023-08-12T04:26:03;20.70;99.90
13682;DHT22;6913;49.892;7.936;2023-08-12T04:28:30;20.40;99.90
13682;DHT22;6913;49.892;7.936;2023-08-12T04:30:58;20.80;99.90
13682;DHT22;6913;49.892;7.936;2023-08-12T04:33:24;20.40;99.90
13682;DHT22;6913;49.892;7.936;2023-08-12T04:35:52;20.50;99.90
13682;DHT22;6913;49.892;7.936;2023-08-12T04:38:19;20.30;99.90
13682;DHT22;6913;49.892;7.936;2023-08-12T04:40:46;20.20;99.90
13682;DHT22;6913;49.892;7.936;2023-08-12T04:43:12;20.20;99.90
13682;DHT22;6913;49.892;7.936;2023-08-12T04:45:39;20.20;99.90
13682;DHT22;6913;49.892;7.936;2023-08-12T04:48:07;20.10;99.90
13682;DHT22;6913;49.892;7.936;2023-08-12T04:50:36;20.60;99.90
13682;DHT22;6913;49.892;7.936;2023-08-12T04:53:04;20.30;99.90
13682;DHT22;6913;49.892;7.936;2023-08-12T04:55:31;20.10;99.90
13682;DHT22;6913;49.892;7.936;2023-08-12T04:57:57;20.00;99.90
13682;DHT22;6913;49.892;7.936;2023-08-12T05:00:24;20.10;99.90
13682;DHT22;6913;49.892;7.936;2023-08-12T05:02:51;20.10;99.90
13682;DHT22;6913;49.892;7.936;2023-08-12T05:05:19;20.30;99.90
13682;DHT22;6913;49.892;7.936;2023-08-12T05:07:46;20.40;99.90
13682;DHT22;6913;49.892;7.936;2023-08-12T05:20:04;21.40;99.90
13682;DHT22;6913;49.892;7.936;2023-08-12T05:22:33;21.40;99.90
13682;DHT22;6913;49.892;7.936;2023-08-12T05:24:59;21.70;99.90
13682;DHT22;6913;49.892;7.936;2023-08-12T05:27:26;21.70;99.90
13682;DHT22;6913;49.892;7.936;2023-08-12T05:29:53;21.60;99.90
13682;DHT22;6913;49.892;7.936;2023-08-12T05:32:20;21.70;99.90
13682;DHT22;6913;49.892;7.936;2023-08-12T05:34:49;22.40;99.90
13682;DHT22;6913;49.892;7.936;2023-08-12T05:37:16;22.50;99.90
13682;DHT22;6913;49.892;7.936;2023-08-12T05:39:44;22.30;99.90
13682;DHT22;6913;49.892;7.936;2023-08-12T05:42:11;22.70;99.90
13682;DHT22;6913;49.892;7.936;2023-08-12T05:44:40;22.60;99.90
13682;DHT22;6913;49.892;7.936;2023-08-12T05:47:07;22.00;99.90
13682;DHT22;6913;49.892;7.936;2023-08-12T05:49:33;21.90;99.90
13682;DHT22;6913;49.892;7.936;2023-08-12T05:52:00;22.30;99.90
13682;DHT22;6913;49.892;7.936;2023-08-12T05:54:27;22.60;99.90
13682;DHT22;6913;49.892;7.936;2023-08-12T05:56:55;22.70;99.90
13682;DHT22;6913;49.892;7.936;2023-08-12T05:59:22;23.00;99.90
13682;DHT22;6913;49.892;7.936;2023-08-12T06:01:49;23.00;99.90
13682;DHT22;6913;49.892;7.936;2023-08-12T06:04:15;22.70;99.90
13682;DHT22;6913;49.892;7.936;2023-08-12T06:06:42;22.80;99.90
13682;DHT22;6913;49.892;7.936;2023-08-12T06:09:09;22.70;99.90
13682;DHT22;6913;49.892;7.936;2023-08-12T06:11:36;22.40;99.90
13682;DHT22;6913;49.892;7.936;2023-08-12T06:14:04;21.90;99.90
13682;DHT22;6913;49.892;7.936;2023-08-12T06:16:31;21.90;99.90
13682;DHT22;6913;49.892;7.936;2023-08-12T06:18:57;22.90;99.90
13682;DHT22;6913;49.892;7.936;2023-08-12T06:21:24;22.80;99.90
13682;DHT22;6913;49.892;7.936;2023-08-12T06:26:18;22.80;99.90
13682;DHT22;6913;49.892;7.936;2023-08-12T06:28:45;23.00;99.90
13682;DHT22;6913;49.892;7.936;2023-08-12T06:31:13;22.90;99.90
13682;DHT22;6913;49.892;7.936;2023-08-12T06:33:40;23.20;99.90
13682;DHT22;6913;49.892;7.936;2023-08-12T06:36:06;23.70;99.90
13682;DHT22;6913;49.892;7.936;2023-08-12T06:38:33;23.50;99.90
13682;DHT22;6913;49.892;7.936;2023-08-12T06:41:00;23.70;99.90
13682;DHT22;6913;49.892;7.936;2023-08-12T06:43:27;23.40;99.90
13682;DHT22;6913;49.892;7.936;2023-08-12T06:45:53;23.40;99.90
13682;DHT22;6913;49.892;7.936;2023-08-12T06:48:22;23.10;99.90
13682;DHT22;6913;49.892;7.936;2023-08-12T06:50:53;22.70;99.90
13682;DHT22;6913;49.892;7.936;2023-08-12T06:53:20;22.70;99.90
13682;DHT22;6913;49.892;7.936;2023-08-12T06:55:46;22.70;99.90
13682;DHT22;6913;49.892;7.936;2023-08-12T06:58:13;22.80;99.90
13682;DHT22;6913;49.892;7.936;2023-08-12T07:00:40;23.20;99.90
13682;DHT22;6913;49.892;7.936;2023-08-12T07:03:07;23.60;99.90
13682;DHT22;6913;49.892;7.936;2023-08-12T07:05:35;24.00;99.90
13682;DHT22;6913;49.892;7.936;2023-08-12T07:08:03;23.70;99.90
13682;DHT22;6913;49.892;7.936;2023-08-12T07:10:29;23.80;99.90
13682;DHT22;6913;49.892;7.936;2023-08-12T07:12:56;24.00;99.90
13682;DHT22;6913;49.892;7.936;2023-08-12T07:15:23;24.20;99.90
13682;DHT22;6913;49.892;7.936;2023-08-12T07:17:50;23.90;99.90
13682;DHT22;6913;49.892;7.936;2023-08-12T07:20:17;24.00;99.90
13682;DHT22;6913;49.892;7.936;2023-08-12T07:22:45;24.10;99.90
13682;DHT22;6913;49.892;7.936;2023-08-12T07:25:11;24.40;99.90
13682;DHT22;6913;49.892;7.936;2023-08-12T07:27:38;24.40;99.90
13682;DHT22;6913;49.892;7.936;2023-08-12T07:30:06;24.20;99.90
13682;DHT22;6913;49.892;7.936;2023-08-12T07:32:35;23.90;99.90
13682;DHT22;6913;49.892;7.936;2023-08-12T07:35:03;24.00;99.90
13682;DHT22;6913;49.892;7.936;2023-08-12T07:37:31;23.90;99.90
13682;DHT22;6913;49.892;7.936;2023-08-12T07:40:00;24.30;99.90
13682;DHT22;6913;49.892;7.936;2023-08-12T07:42:26;24.60;99.90
13682;DHT22;6913;49.892;7.936;2023-08-12T07:44:53;24.30;99.90
13682;DHT22;6913;49.892;7.936;2023-08-12T07:47:20;24.70;99.90
13682;DHT22;6913;49.892;7.936;2023-08-12T07:49:47;24.60;99.90
13682;DHT22;6913;49.892;7.936;2023-08-12T07:52:14;24.90;99.90
13682;DHT22;6913;49.892;7.936;2023-08-12T07:54:40;25.00;99.90
13682;DHT22;6913;49.892;7.936;2023-08-12T07:57:08;24.80;99.90
13682;DHT22;6913;49.892;7.936;2023-08-12T07:59:35;24.80;99.90
13682;DHT22;6913;49.892;7.936;2023-08-12T08:02:02;25.10;99.90
13682;DHT22;6913;49.892;7.936;2023-08-12T08:04:29;25.00;99.90
13682;DHT22;6913;49.892;7.936;2023-08-12T08:06:56;24.90;99.90
13682;DHT22;6913;49.892;7.936;2023-08-12T08:09:23;25.20;99.90
13682;DHT22;6913;49.892;7.936;2023-08-12T08:11:50;25.10;99.90
13682;DHT22;6913;49.892;7.936;2023-08-12T08:14:18;24.80;99.90
13682;DHT22;6913;49.892;7.936;2023-08-12T08:16:45;25.00;99.90
13682;DHT22;6913;49.892;7.936;2023-08-12T08:19:12;25.00;99.90
13682;DHT22;6913;49.892;7.936;2023-08-12T08:21:39;24.90;99.90
13682;DHT22;6913;49.892;7.936;2023-08-12T08:24:06;25.00;99.90
13682;DHT22;6913;49.892;7.936;2023-08-12T08:26:34;24.70;99.90
13682;DHT22;6913;49.892;7.936;2023-08-12T08:29:00;24.50;99.90
13682;DHT22;6913;49.892;7.936;2023-08-12T08:31:29;24.50;99.90
13682;DHT22;6913;49.892;7.936;2023-08-12T08:33:55;24.70;99.90
13682;DHT22;6913;49.892;7.936;2023-08-12T08:36:22;24.70;99.90
13682;DHT22;6913;49.892;7.936;2023-08-12T08:38:49;24.90;99.90
13682;DHT22;6913;49.892;7.936;2023-08-12T08:41:16;24.40;99.90
13682;DHT22;6913;49.892;7.936;2023-08-12T08:43:43;24.40;99.90
13682;DHT22;6913;49.892;7.936;2023-08-12T08:46:14;24.60;99.90
13682;DHT22;6913;49.892;7.936;2023-08-12T08:48:43;24.70;99.90
13682;DHT22;6913;49.892;7.936;2023-08-12T08:51:10;24.50;99.90
13682;DHT22;6913;49.892;7.936;2023-08-12T08:53:38;24.60;99.90
13682;DHT22;6913;49.892;7.936;2023-08-12T08:56:05;24.40;99.90
13682;DHT22;6913;49.892;7.936;2023-08-12T08:58:33;24.40;99.90
13682;DHT22;6913;49.892;7.936;2023-08-12T09:01:00;24.10;99.90
13682;DHT22;6913;49.892;7.936;2023-08-12T09:03:28;24.30;99.90
13682;DHT22;6913;49.892;7.936;2023-08-12T09:05:56;24.70;99.90
13682;DHT22;6913;49.892;7.936;2023-08-12T09:08:26;24.80;99.90
13682;DHT22;6913;49.892;7.936;2023-08-12T09:10:54;25.10;99.90
13682;DHT22;6913;49.892;7.936;2023-08-12T09:13:21;25.30;99.90
13682;DHT22;6913;49.892;7.936;2023-08-12T09:15:48;25.20;99.90
13682;DHT22;6913;49.892;7.936;2023-08-12T09:18:15;25.40;99.90
13682;DHT22;6913;49.892;7.936;2023-08-12T09:20:42;25.10;99.90
13682;DHT22;6913;49.892;7.936;2023-08-12T09:23:11;24.90;99.90
13682;DHT22;6913;49.892;7.936;2023-08-12T09:25:41;25.00;99.90
13682;DHT22;6913;49.892;7.936;2023-08-12T09:28:10;24.40;99.90
13682;DHT22;6913;49.892;7.936;2023-08-12T09:30:38;24.70;99.90
13682;DHT22;6913;49.892;7.936;2023-08-12T09:33:06;25.00;99.90
13682;DHT22;6913;49.892;7.936;2023-08-12T09:35:34;25.10;99.90
13682;DHT22;6913;49.892;7.936;2023-08-12T09:38:03;25.10;99.90
13682;DHT22;6913;49.892;7.936;2023-08-12T09:40:32;25.10;99.90
13682;DHT22;6913;49.892;7.936;2023-08-12T09:43:00;24.80;99.90
13682;DHT22;6913;49.892;7.936;2023-08-12T09:45:27;24.70;99.90
13682;DHT22;6913;49.892;7.936;2023-08-12T09:47:54;24.50;99.90
13682;DHT22;6913;49.892;7.936;2023-08-12T09:50:22;24.50;99.90
13682;DHT22;6913;49.892;7.936;2023-08-12T09:52:50;24.20;99.90
13682;DHT22;6913;49.892;7.936;2023-08-12T09:55:19;24.10;99.90
13682;DHT22;6913;49.892;7.936;2023-08-12T09:57:50;24.00;99.90
13682;DHT22;6913;49.892;7.936;2023-08-12T10:00:18;23.60;99.90
13682;DHT22;6913;49.892;7.936;2023-08-12T10:02:47;23.40;99.90
13682;DHT22;6913;49.892;7.936;2023-08-12T10:05:18;23.40;99.90
13682;DHT22;6913;49.892;7.936;2023-08-12T10:07:47;23.40;99.90
13682;DHT22;6913;49.892;7.936;2023-08-12T10:10:14;23.30;99.90
13682;DHT22;6913;49.892;7.936;2023-08-12T10:12:41;23.20;99.90
13682;DHT22;6913;49.892;7.936;2023-08-12T14:05:06;28.70;6.20
13682;DHT22;6913;49.892;7.936;2023-08-12T14:07:33;28.60;4.40
13682;DHT22;6913;49.892;7.936;2023-08-12T14:10:00;28.80;25.50
13682;DHT22;6913;49.892;7.936;2023-08-12T14:12:29;28.70;1.00
13682;DHT22;6913;49.892;7.936;2023-08-12T14:14:56;28.70;5.60
13682;DHT22;6913;49.892;7.936;2023-08-12T14:17:23;28.60;8.60
13682;DHT22;6913;49.892;7.936;2023-08-12T14:19:51;28.10;15.90
13682;DHT22;6913;49.892;7.936;2023-08-12T14:22:18;28.30;17.50
13682;DHT22;6913;49.892;7.936;2023-08-12T14:24:45;28.40;41.60
13682;DHT22;6913;49.892;7.936;2023-08-12T14:27:13;28.30;25.70
13682;DHT22;6913;49.892;7.936;2023-08-12T14:29:42;28.30;18.40
13682;DHT22;6913;49.892;7.936;2023-08-12T14:32:09;28.30;30.30
13682;DHT22;6913;49.892;7.936;2023-08-12T14:37:03;28.00;29.20
13682;DHT22;6913;49.892;7.936;2023-08-12T14:39:32;27.80;39.90
13682;DHT22;6913;49.892;7.936;2023-08-12T14:41:59;27.90;38.20
13682;DHT22;6913;49.892;7.936;2023-08-12T14:44:26;27.70;20.10
13682;DHT22;6913;49.892;7.936;2023-08-12T14:46:54;27.60;17.00
13682;DHT22;6913;49.892;7.936;2023-08-12T14:49:21;27.70;28.20
13682;DHT22;6913;49.892;7.936;2023-08-12T14:51:47;27.60;29.90
13682;DHT22;6913;49.892;7.936;2023-08-12T14:54:14;27.70;42.30
13682;DHT22;6913;49.892;7.936;2023-08-12T14:56:41;27.70;26.90
13682;DHT22;6913;49.892;7.936;2023-08-12T14:59:09;27.70;16.40
13682;DHT22;6913;49.892;7.936;2023-08-12T15:01:36;27.70;18.50
13682;DHT22;6913;49.892;7.936;2023-08-12T15:04:04;27.70;31.80
13682;DHT22;6913;49.892;7.936;2023-08-12T15:06:31;27.80;34.70
13682;DHT22;6913;49.892;7.936;2023-08-12T15:08:58;27.70;31.70
13682;DHT22;6913;49.892;7.936;2023-08-12T15:11:25;27.70;16.20
13682;DHT22;6913;49.892;7.936;2023-08-12T15:13:51;27.60;27.50
13682;DHT22;6913;49.892;7.936;2023-08-12T15:16:18;27.40;38.00
13682;DHT22;6913;49.892;7.936;2023-08-12T15:18:45;27.60;47.00
13682;DHT22;6913;49.892;7.936;2023-08-12T15:21:13;27.60;38.70
13682;DHT22;6913;49.892;7.936;2023-08-12T15:23:41;27.80;26.80
13682;DHT22;6913;49.892;7.936;2023-08-12T15:26:08;27.90;22.50
13682;DHT22;6913;49.892;7.936;2023-08-12T15:28:35;27.90;50.80
13682;DHT22;6913;49.892;7.936;2023-08-12T15:31:01;28.10;22.50
13682;DHT22;6913;49.892;7.936;2023-08-12T15:33:28;28.30;11.20
13682;DHT22;6913;49.892;7.936;2023-08-12T15:35:55;28.30;32.50
13682;DHT22;6913;49.892;7.936;2023-08-12T15:38:23;28.40;7.30
13682;DHT22;6913;49.892;7.936;2023-08-12T15:40:50;28.20;14.30
13682;DHT22;6913;49.892;7.936;2023-08-12T15:43:16;28.00;21.20
13682;DHT22;6913;49.892;7.936;2023-08-12T15:45:43;28.00;39.00
13682;DHT22;6913;49.892;7.936;2023-08-12T15:48:10;27.80;28.20
13682;DHT22;6913;49.892;7.936;2023-08-12T15:50:37;27.80;24.90
13682;DHT22;6913;49.892;7.936;2023-08-12T15:53:04;27.70;31.60
13682;DHT22;6913;49.892;7.936;2023-08-12T15:55:32;27.60;38.70
13682;DHT22;6913;49.892;7.936;2023-08-12T15:57:59;27.50;62.00
13682;DHT22;6913;49.892;7.936;2023-08-12T16:00:26;27.30;41.60
13682;DHT22;6913;49.892;7.936;2023-08-12T16:02:52;26.90;65.80
13682;DHT22;6913;49.892;7.936;2023-08-12T16:05:19;26.90;80.20
13682;DHT22;6913;49.892;7.936;2023-08-12T16:07:46;27.00;87.50
13682;DHT22;6913;49.892;7.936;2023-08-12T16:10:13;27.20;75.10
13682;DHT22;6913;49.892;7.936;2023-08-12T16:12:41;27.10;87.90
13682;DHT22;6913;49.892;7.936;2023-08-12T16:15:08;27.10;84.80
13682;DHT22;6913;49.892;7.936;2023-08-12T16:17:35;27.00;88.20
13682;DHT22;6913;49.892;7.936;2023-08-12T16:20:02;26.90;86.80
13682;DHT22;6913;49.892;7.936;2023-08-12T16:22:29;26.90;89.80
13682;DHT22;6913;49.892;7.936;2023-08-12T16:24:56;27.00;97.00
13682;DHT22;6913;49.892;7.936;2023-08-12T16:27:23;27.00;98.00
13682;DHT22;6913;49.892;7.936;2023-08-12T16:29:51;27.00;96.40
13682;DHT22;6913;49.892;7.936;2023-08-12T16:32:18;26.90;93.60
13682;DHT22;6913;49.892;7.936;2023-08-12T16:34:44;26.70;94.70
13682;DHT22;6913;49.892;7.936;2023-08-12T16:37:11;26.80;99.90
13682;DHT22;6913;49.892;7.936;2023-08-12T16:39:38;26.70;99.90
13682;DHT22;6913;49.892;7.936;2023-08-12T16:42:05;26.60;99.90
13682;DHT22;6913;49.892;7.936;2023-08-12T16:44:32;26.60;97.50
13682;DHT22;6913;49.892;7.936;2023-08-12T16:49:27;26.70;95.80
13682;DHT22;6913;49.892;7.936;2023-08-12T16:51:54;26.70;94.10
13682;DHT22;6913;49.892;7.936;2023-08-12T16:54:20;26.80;85.20
13682;DHT22;6913;49.892;7.936;2023-08-12T16:56:47;26.90;79.40
13682;DHT22;6913;49.892;7.936;2023-08-12T16:59:14;26.90;75.90
13682;DHT22;6913;49.892;7.936;2023-08-12T17:01:41;26.70;86.60
13682;DHT22;6913;49.892;7.936;2023-08-12T17:04:09;26.70;81.90
13682;DHT22;6913;49.892;7.936;2023-08-12T17:06:37;26.50;91.30
13682;DHT22;6913;49.892;7.936;2023-08-12T17:09:05;26.50;85.00
13682;DHT22;6913;49.892;7.936;2023-08-12T17:11:33;26.40;92.90
13682;DHT22;6913;49.892;7.936;2023-08-12T17:14:00;26.60;92.70
13682;DHT22;6913;49.892;7.936;2023-08-12T17:16:26;26.20;99.90
13682;DHT22;6913;49.892;7.936;2023-08-12T17:18:53;26.20;99.90
13682;DHT22;6913;49.892;7.936;2023-08-12T17:21:21;26.30;96.70
13682;DHT22;6913;49.892;7.936;2023-08-12T17:23:48;26.40;95.20
13682;DHT22;6913;49.892;7.936;2023-08-12T17:26:15;26.60;93.40
13682;DHT22;6913;49.892;7.936;2023-08-12T17:28:42;26.20;99.90
13682;DHT22;6913;49.892;7.936;2023-08-12T17:31:08;26.10;99.90
13682;DHT22;6913;49.892;7.936;2023-08-12T17:33:37;26.10;99.90
13682;DHT22;6913;49.892;7.936;2023-08-12T17:36:04;26.10;99.90
13682;DHT22;6913;49.892;7.936;2023-08-12T17:38:33;26.00;99.90
13682;DHT22;6913;49.892;7.936;2023-08-12T17:40:59;25.90;99.90
13682;DHT22;6913;49.892;7.936;2023-08-12T17:43:28;25.70;99.90
13682;DHT22;6913;49.892;7.936;2023-08-12T17:45:54;25.60;99.90
13682;DHT22;6913;49.892;7.936;2023-08-12T17:48:21;25.50;99.90
13682;DHT22;6913;49.892;7.936;2023-08-12T17:50:48;25.40;99.90
13682;DHT22;6913;49.892;7.936;2023-08-12T17:53:15;25.40;99.90
13682;DHT22;6913;49.892;7.936;2023-08-12T17:55:43;25.30;99.90
13682;DHT22;6913;49.892;7.936;2023-08-12T17:58:10;25.20;99.90
13682;DHT22;6913;49.892;7.936;2023-08-12T18:00:37;25.10;99.90
13682;DHT22;6913;49.892;7.936;2023-08-12T18:03:04;25.10;99.90
13682;DHT22;6913;49.892;7.936;2023-08-12T18:05:31;25.20;99.90
13682;DHT22;6913;49.892;7.936;2023-08-12T18:07:57;25.10;99.90
13682;DHT22;6913;49.892;7.936;2023-08-12T18:10:24;25.10;99.90
13682;DHT22;6913;49.892;7.936;2023-08-12T18:12:53;25.00;99.90
13682;DHT22;6913;49.892;7.936;2023-08-12T18:15:20;25.00;99.90
13682;DHT22;6913;49.892;7.936;2023-08-12T18:17:47;25.00;99.90
13682;DHT22;6913;49.892;7.936;2023-08-12T18:20:16;24.90;99.90
13682;DHT22;6913;49.892;7.936;2023-08-12T18:22:43;24.80;99.90
13682;DHT22;6913;49.892;7.936;2023-08-12T18:25:09;24.90;99.90
13682;DHT22;6913;49.892;7.936;2023-08-12T18:27:36;24.80;99.90
13682;DHT22;6913;49.892;7.936;2023-08-12T18:30:05;24.80;99.90
13682;DHT22;6913;49.892;7.936;2023-08-12T18:32:32;24.70;99.90
13682;DHT22;6913;49.892;7.936;2023-08-12T18:34:59;24.70;99.90
13682;DHT22;6913;49.892;7.936;2023-08-12T18:37:26;24.70;99.90
13682;DHT22;6913;49.892;7.936;2023-08-12T18:39:53;24.70;99.90
13682;DHT22;6913;49.892;7.936;2023-08-12T18:42:19;24.60;99.90
13682;DHT22;6913;49.892;7.936;2023-08-12T18:44:46;24.50;99.90
13682;DHT22;6913;49.892;7.936;2023-08-12T18:47:14;24.50;99.90
13682;DHT22;6913;49.892;7.936;2023-08-12T18:49:42;24.60;99.90
13682;DHT22;6913;49.892;7.936;2023-08-12T18:52:09;24.50;99.90
13682;DHT22;6913;49.892;7.936;2023-08-12T18:54:36;24.50;99.90
13682;DHT22;6913;49.892;7.936;2023-08-12T18:57:03;24.40;99.90
13682;DHT22;6913;49.892;7.936;2023-08-12T18:59:30;24.40;99.90
13682;DHT22;6913;49.892;7.936;2023-08-12T19:01:57;24.30;99.90
13682;DHT22;6913;49.892;7.936;2023-08-12T19:04:25;24.10;99.90
13682;DHT22;6913;49.892;7.936;2023-08-12T19:06:52;23.90;99.90
13682;DHT22;6913;49.892;7.936;2023-08-12T19:09:19;23.70;99.90
13682;DHT22;6913;49.892;7.936;2023-08-12T19:11:46;23.60;99.90
13682;DHT22;6913;49.892;7.936;2023-08-12T19:14:14;23.70;99.90
13682;DHT22;6913;49.892;7.936;2023-08-12T19:16:41;23.80;99.90
13682;DHT22;6913;49.892;7.936;2023-08-12T19:19:07;23.70;99.90
13682;DHT22;6913;49.892;7.936;2023-08-12T19:21:37;23.60;99.90
13682;DHT22;6913;49.892;7.936;2023-08-12T19:24:04;23.50;99.90
13682;DHT22;6913;49.892;7.936;2023-08-12T19:26:31;23.40;99.90
13682;DHT22;6913;49.892;7.936;2023-08-12T19:31:27;23.50;99.90
13682;DHT22;6913;49.892;7.936;2023-08-12T19:33:53;23.40;99.90
13682;DHT22;6913;49.892;7.936;2023-08-12T19:36:20;23.40;99.90
13682;DHT22;6913;49.892;7.936;2023-08-12T19:38:48;23.40;99.90
13682;DHT22;6913;49.892;7.936;2023-08-12T19:41:15;23.30;99.90
13682;DHT22;6913;49.892;7.936;2023-08-12T19:43:42;23.10;99.90
13682;DHT22;6913;49.892;7.936;2023-08-12T19:46:09;23.40;99.90
13682;DHT22;6913;49.892;7.936;2023-08-12T19:48:36;23.20;99.90
13682;DHT22;6913;49.892;7.936;2023-08-12T19:51:03;23.10;99.90
13682;DHT22;6913;49.892;7.936;2023-08-12T19:53:29;23.10;99.90
13682;DHT22;6913;49.892;7.936;2023-08-12T19:55:58;23.10;99.90